Time;durP1;ratioP1;P1;durP2;ratioP2;P2;SDS_P1;SDS_P2;PMS_P1;PMS_P2;Temp;Humidity;BMP_temperature;BMP_pressure;BME280_temperature;BME280_humidity;BME280_pressure;Samples;Min_cycle;Max_cycle;Signal;HPM_P1;HPM_P2
2023/04/08 00:00:18;;;;;;;21.02;11.68;;;5.40;99.90;;;;;;4999756;28;20072;-78
2023/04/08 00:02:44;;;;;;;20.75;10.98;;;5.40;99.90;;;;;;4995137;28;20036;-78
2023/04/08 00:05:10;;;;;;;25.23;10.95;;;5.40;99.90;;;;;;5000416;28;20084;-78
2023/04/08 00:07:36;;;;;;;29.77;11.20;;;5.30;99.90;;;;;;4998759;28;20490;-77
2023/04/08 00:10:02;;;;;;;18.45;10.98;;;5.30;99.90;;;;;;5015133;28;20032;-78
2023/04/08 00:12:27;;;;;;;19.63;10.77;;;5.30;99.90;;;;;;5006423;28;20048;-78
2023/04/08 00:14:53;;;;;;;20.48;10.95;;;5.30;99.90;;;;;;5004525;28;20030;-78
2023/04/08 00:17:19;;;;;;;21.15;10.18;;;5.20;99.90;;;;;;5001176;28;20469;-78
2023/04/08 00:19:45;;;;;;;17.60;9.75;;;5.10;99.90;;;;;;5020115;28;20374;-78
2023/04/08 00:22:10;;;;;;;19.38;10.20;;;5.10;99.90;;;;;;5000075;28;20125;-77
2023/04/08 00:24:36;;;;;;;16.77;9.15;;;5.10;99.90;;;;;;5003216;28;20036;-78
2023/04/08 00:27:02;;;;;;;19.17;10.35;;;5.10;99.90;;;;;;4992930;28;20176;-78
2023/04/08 00:29:28;;;;;;;16.98;10.60;;;4.90;99.90;;;;;;5012864;28;20469;-78
2023/04/08 00:31:53;;;;;;;16.48;9.93;;;4.90;99.90;;;;;;5007877;28;20025;-78
2023/04/08 00:34:19;;;;;;;20.88;11.40;;;4.90;99.90;;;;;;5035810;28;20137;-78
2023/04/08 00:36:46;;;;;;;20.55;10.52;;;4.80;99.90;;;;;;4999786;28;20116;-78
2023/04/08 00:39:12;;;;;;;15.27;9.73;;;4.80;99.90;;;;;;4996206;28;20030;-77
2023/04/08 00:41:38;;;;;;;19.50;11.25;;;4.80;99.90;;;;;;5012611;28;20138;-78
2023/04/08 00:44:04;;;;;;;21.52;10.43;;;4.80;99.90;;;;;;5006210;28;20109;-78
2023/04/08 00:46:34;;;;;;;19.15;10.43;;;4.80;99.90;;;;;;5004861;28;20422;-78
2023/04/08 00:49:01;;;;;;;15.27;10.10;;;4.80;99.90;;;;;;4998767;28;20152;-78
2023/04/08 00:51:28;;;;;;;16.92;10.35;;;4.80;99.90;;;;;;4999461;28;20073;-78
2023/04/08 00:53:54;;;;;;;14.32;9.00;;;4.80;99.90;;;;;;5003628;28;20260;-78
2023/04/08 00:56:21;;;;;;;20.45;10.60;;;4.80;99.90;;;;;;5003473;28;20692;-78
2023/04/08 00:58:46;;;;;;;17.35;10.45;;;4.80;99.90;;;;;;5005089;28;20043;-78
2023/04/08 01:01:30;;;;;;;23.52;12.23;;;4.80;99.90;;;;;;5004993;28;20117;-78
2023/04/08 01:04:06;;;;;;;18.30;11.40;;;4.90;99.90;;;;;;5004554;28;20037;-78
2023/04/08 01:06:41;;;;;;;18.65;12.15;;;4.80;99.90;;;;;;5004473;28;20123;-79
2023/04/08 01:09:08;;;;;;;19.88;11.82;;;4.70;99.90;;;;;;5014964;28;20085;-77
2023/04/08 01:11:36;;;;;;;27.15;12.95;;;4.80;99.90;;;;;;5001947;28;20457;-78
2023/04/08 01:14:05;;;;;;;18.23;11.38;;;4.70;99.90;;;;;;5007135;28;20036;-78
2023/04/08 01:16:31;;;;;;;17.63;11.48;;;4.70;99.90;;;;;;5007216;28;20037;-79
2023/04/08 01:18:57;;;;;;;19.55;12.02;;;4.70;99.90;;;;;;5016242;28;20030;-78
2023/04/08 01:21:23;;;;;;;17.98;11.38;;;4.70;99.90;;;;;;5001702;28;20034;-78
2023/04/08 01:24:07;;;;;;;20.80;12.02;;;4.70;99.90;;;;;;5016821;28;20347;-78
2023/04/08 01:26:34;;;;;;;20.73;11.10;;;4.70;99.90;;;;;;5000816;28;20034;-78
2023/04/08 01:29:02;;;;;;;22.02;10.93;;;4.70;99.90;;;;;;4994306;28;20026;-78
2023/04/08 01:31:29;;;;;;;17.98;11.20;;;4.70;99.90;;;;;;5003195;28;20184;-78
2023/04/08 01:33:56;;;;;;;22.48;11.07;;;4.70;99.90;;;;;;5030184;28;20116;-77
2023/04/08 01:36:23;;;;;;;20.52;11.95;;;4.70;99.90;;;;;;5006889;28;20041;-77
2023/04/08 01:38:49;;;;;;;21.20;12.00;;;4.80;99.90;;;;;;4988912;28;20026;-78
2023/04/08 01:41:17;;;;;;;28.95;14.40;;;4.80;99.90;;;;;;5000218;28;20035;-77
2023/04/08 01:43:43;;;;;;;32.00;13.98;;;4.90;99.90;;;;;;4998591;28;20443;-78
2023/04/08 01:46:11;;;;;;;25.45;14.45;;;4.90;99.90;;;;;;4990745;28;20064;-78
2023/04/08 01:48:38;;;;;;;27.20;13.68;;;4.90;99.90;;;;;;4995886;28;20034;-78
2023/04/08 01:51:05;;;;;;;21.83;12.80;;;4.90;99.90;;;;;;5005283;28;20034;-78
2023/04/08 01:53:31;;;;;;;30.80;14.32;;;4.90;99.90;;;;;;5000874;28;20036;-79
2023/04/08 01:56:13;;;;;;;30.27;14.48;;;4.80;99.90;;;;;;5002488;28;20593;-78
2023/04/08 01:58:40;;;;;;;;;;;4.80;99.90;;;;;;5001872;28;20045;-79
2023/04/08 02:01:10;;;;;;;20.73;12.40;;;4.80;99.90;;;;;;4993491;28;20082;-78
2023/04/08 02:03:36;;;;;;;21.25;12.88;;;4.70;99.90;;;;;;4996867;28;20061;-78
2023/04/08 02:06:02;;;;;;;24.88;13.02;;;4.70;99.90;;;;;;5021652;28;20057;-78
2023/04/08 02:08:28;;;;;;;23.60;11.02;;;4.60;99.90;;;;;;5005350;28;20103;-79
2023/04/08 02:10:53;;;;;;;17.83;11.18;;;4.50;99.90;;;;;;5001501;28;20025;-78
2023/04/08 02:13:19;;;;;;;28.23;11.55;;;4.40;99.90;;;;;;4995154;28;20057;-78
2023/04/08 02:15:52;;;;;;;20.58;11.10;;;4.30;99.90;;;;;;5003238;28;20100;-78
2023/04/08 02:18:26;;;;;;;16.23;10.82;;;4.20;99.90;;;;;;5009189;28;20100;-78
2023/04/08 02:21:17;;;;;;;15.30;10.07;;;4.10;99.90;;;;;;5014224;28;20034;-78
2023/04/08 02:23:48;;;;;;;16.92;10.38;;;4.00;99.90;;;;;;5004360;28;20111;-78
2023/04/08 02:26:15;;;;;;;16.75;10.55;;;3.90;99.90;;;;;;5020453;28;20033;-78
2023/04/08 02:28:41;;;;;;;19.10;9.50;;;3.80;99.90;;;;;;5014422;28;20034;-78
2023/04/08 02:31:12;;;;;;;14.05;9.70;;;3.70;99.90;;;;;;5001709;28;20033;-78
2023/04/08 02:33:39;;;;;;;21.58;10.25;;;3.70;99.90;;;;;;4995685;28;20553;-78
2023/04/08 02:36:06;;;;;;;14.63;9.95;;;3.60;99.90;;;;;;5004660;28;20046;-78
2023/04/08 02:38:31;;;;;;;14.80;10.25;;;3.60;99.90;;;;;;5001105;28;20030;-78
2023/04/08 02:40:57;;;;;;;14.98;9.80;;;3.60;99.90;;;;;;5019884;28;20036;-78
2023/04/08 02:43:31;;;;;;;14.25;9.23;;;3.50;99.90;;;;;;5002196;28;20512;-78
2023/04/08 02:45:59;;;;;;;17.95;9.88;;;3.50;99.90;;;;;;4999178;28;20346;-78
2023/04/08 02:48:25;;;;;;;18.85;10.63;;;3.50;99.90;;;;;;5009677;28;20030;-78
2023/04/08 02:50:50;;;;;;;15.52;9.88;;;3.50;99.90;;;;;;5034635;28;20056;-78
2023/04/08 02:53:16;;;;;;;16.85;10.45;;;3.50;99.90;;;;;;5001598;28;20105;-77
2023/04/08 02:55:41;;;;;;;15.68;9.57;;;3.40;99.90;;;;;;5017344;28;20041;-78
2023/04/08 02:58:07;;;;;;;15.75;9.73;;;3.40;99.90;;;;;;5001730;28;20057;-78
2023/04/08 03:00:33;;;;;;;13.48;8.85;;;3.40;99.90;;;;;;5005258;28;20106;-78
2023/04/08 03:02:58;;;;;;;13.70;9.10;;;3.30;99.90;;;;;;5002942;28;20033;-78
2023/04/08 03:05:25;;;;;;;14.98;9.43;;;3.20;99.90;;;;;;5002885;28;20192;-78
2023/04/08 03:07:51;;;;;;;13.50;8.82;;;3.20;99.90;;;;;;5033436;28;20103;-78
2023/04/08 03:10:16;;;;;;;14.00;8.57;;;3.20;99.90;;;;;;4999113;28;20440;-79
2023/04/08 03:12:42;;;;;;;15.15;9.43;;;3.20;99.90;;;;;;5001176;28;20030;-78
2023/04/08 03:15:08;;;;;;;14.32;9.45;;;3.20;99.90;;;;;;5002994;28;20145;-79
2023/04/08 03:17:34;;;;;;;15.25;9.35;;;3.20;99.90;;;;;;5033344;28;20454;-79
2023/04/08 03:20:00;;;;;;;14.90;8.65;;;3.10;99.90;;;;;;5001485;28;20115;-79
2023/04/08 03:22:26;;;;;;;14.88;9.52;;;3.10;99.90;;;;;;5001006;28;20052;-78
2023/04/08 03:24:51;;;;;;;13.57;9.23;;;3.00;99.90;;;;;;5000911;28;20030;-78
2023/04/08 03:27:17;;;;;;;15.77;9.55;;;3.00;99.90;;;;;;4999297;28;20109;-78
2023/04/08 03:29:44;;;;;;;13.60;8.93;;;3.00;99.90;;;;;;5008769;28;20037;-78
2023/04/08 03:32:10;;;;;;;13.43;8.98;;;2.90;99.90;;;;;;5000981;28;20125;-78
2023/04/08 03:34:35;;;;;;;13.30;8.80;;;2.90;99.90;;;;;;5034344;28;20129;-78
2023/04/08 03:37:01;;;;;;;10.45;7.45;;;2.80;99.90;;;;;;5000138;28;20022;-78
2023/04/08 03:39:27;;;;;;;10.23;7.60;;;2.80;99.90;;;;;;5002356;28;20244;-78
2023/04/08 03:41:52;;;;;;;11.57;8.00;;;2.70;99.90;;;;;;5000092;28;20060;-79
2023/04/08 03:44:19;;;;;;;11.77;7.78;;;2.60;99.90;;;;;;4993839;28;20030;-79
2023/04/08 03:46:44;;;;;;;13.40;8.02;;;2.50;99.90;;;;;;4983841;28;20556;-78
2023/04/08 03:49:10;;;;;;;12.82;7.88;;;2.30;99.90;;;;;;5001453;28;20037;-78
2023/04/08 03:51:35;;;;;;;12.45;7.97;;;2.20;99.90;;;;;;5014732;28;20039;-78
2023/04/08 03:54:01;;;;;;;11.50;8.38;;;2.30;99.90;;;;;;5031487;28;20085;-79
2023/04/08 03:56:27;;;;;;;11.00;7.65;;;2.30;99.90;;;;;;5002035;28;20049;-78
2023/04/08 03:58:52;;;;;;;12.73;8.10;;;2.30;99.90;;;;;;5003781;28;20519;-78
2023/04/08 04:01:18;;;;;;;13.10;8.65;;;2.40;99.90;;;;;;5033177;28;20442;-78
2023/04/08 04:03:43;;;;;;;11.13;7.93;;;2.40;99.90;;;;;;5000663;28;20064;-78
2023/04/08 04:06:09;;;;;;;11.73;8.02;;;2.40;99.90;;;;;;5001385;28;20104;-78
2023/04/08 04:08:35;;;;;;;14.30;8.13;;;2.40;99.90;;;;;;4991712;28;20089;-78
2023/04/08 04:11:01;;;;;;;15.93;8.98;;;2.40;99.90;;;;;;4982419;28;20514;-79
2023/04/08 04:13:26;;;;;;;12.18;8.48;;;2.40;99.90;;;;;;4995550;28;20060;-77
2023/04/08 04:15:52;;;;;;;11.60;8.00;;;2.40;99.90;;;;;;4989024;28;20029;-78
2023/04/08 04:18:18;;;;;;;12.57;8.15;;;2.40;99.90;;;;;;5002254;28;20033;-79
2023/04/08 04:20:43;;;;;;;11.35;7.95;;;2.40;99.90;;;;;;5002113;28;20077;-79
2023/04/08 04:23:09;;;;;;;14.88;9.52;;;2.40;99.90;;;;;;5033213;28;20030;-78
2023/04/08 04:25:35;;;;;;;13.18;8.50;;;2.30;99.90;;;;;;5011892;28;20496;-77
2023/04/08 04:28:01;;;;;;;13.57;8.52;;;2.30;99.90;;;;;;5000372;28;20583;-78
2023/04/08 04:30:27;;;;;;;10.52;7.70;;;2.30;99.90;;;;;;5033250;28;20059;-78
2023/04/08 04:32:53;;;;;;;12.48;7.60;;;2.30;99.90;;;;;;5000215;28;20060;-78
2023/04/08 04:35:18;;;;;;;14.32;9.07;;;2.30;99.90;;;;;;5001125;28;20403;-78
2023/04/08 04:37:44;;;;;;;13.70;8.00;;;2.30;99.90;;;;;;4998552;28;20116;-79
2023/04/08 04:40:10;;;;;;;13.52;8.32;;;2.30;99.90;;;;;;5001680;28;20033;-79
2023/04/08 04:42:36;;;;;;;13.63;8.77;;;2.20;99.90;;;;;;5000273;28;20428;-78
2023/04/08 04:45:01;;;;;;;16.35;7.85;;;2.20;99.90;;;;;;4996957;28;20408;-78
2023/04/08 04:47:27;;;;;;;10.82;7.25;;;2.20;99.90;;;;;;5004981;28;21387;-79
2023/04/08 04:49:52;;;;;;;12.32;7.90;;;2.20;99.90;;;;;;5006869;28;20038;-79
2023/04/08 04:52:18;;;;;;;12.90;8.13;;;2.20;99.90;;;;;;4993822;28;20026;-78
2023/04/08 04:54:44;;;;;;;11.57;7.43;;;2.20;99.90;;;;;;5002882;28;20067;-78
2023/04/08 04:57:10;;;;;;;11.30;7.55;;;2.20;99.90;;;;;;5010560;28;20026;-78
2023/04/08 04:59:36;;;;;;;11.90;7.50;;;2.10;99.90;;;;;;5010833;28;20042;-78
2023/04/08 05:02:01;;;;;;;13.02;8.48;;;2.20;99.90;;;;;;5008864;28;20097;-78
2023/04/08 05:04:27;;;;;;;12.02;7.45;;;2.10;99.90;;;;;;5035985;28;20042;-78
2023/04/08 05:06:53;;;;;;;10.73;7.18;;;2.00;99.90;;;;;;5003170;28;20053;-78
2023/04/08 05:09:18;;;;;;;15.00;8.95;;;1.90;99.90;;;;;;5003492;28;20404;-78
2023/04/08 05:11:44;;;;;;;13.82;8.43;;;1.70;99.90;;;;;;5003789;28;20141;-79
2023/04/08 05:14:10;;;;;;;16.83;8.98;;;1.80;99.90;;;;;;5004285;28;20477;-78
2023/04/08 05:16:35;;;;;;;14.00;8.60;;;1.70;99.90;;;;;;5003637;28;20034;-78
2023/04/08 05:19:01;;;;;;;13.98;8.63;;;1.80;99.90;;;;;;5004130;28;20041;-79
2023/04/08 05:21:27;;;;;;;16.70;9.73;;;1.80;99.90;;;;;;5003297;28;20460;-78
2023/04/08 05:23:53;;;;;;;13.30;8.45;;;1.70;99.90;;;;;;5003133;28;20030;-78
2023/04/08 05:26:22;;;;;;;14.18;8.70;;;1.80;99.90;;;;;;5009900;28;20030;-78
2023/04/08 05:28:48;;;;;;;14.20;8.77;;;1.80;99.90;;;;;;5004505;28;20037;-79
2023/04/08 05:31:18;;;;;;;14.00;8.30;;;1.80;99.90;;;;;;5001193;28;20518;-79
2023/04/08 05:33:43;;;;;;;12.05;8.02;;;1.70;99.90;;;;;;5023212;28;20453;-78
2023/04/08 05:36:12;;;;;;;13.43;7.97;;;1.80;99.90;;;;;;5010978;28;20034;-79
2023/04/08 05:38:39;;;;;;;13.18;7.85;;;1.80;99.90;;;;;;5002271;28;20133;-79
2023/04/08 05:41:05;;;;;;;14.35;8.40;;;1.80;99.90;;;;;;5033025;28;20099;-78
2023/04/08 05:43:34;;;;;;;10.82;7.38;;;1.80;99.90;;;;;;4999297;28;20084;-78
2023/04/08 05:46:08;;;;;;;13.45;8.25;;;1.80;99.90;;;;;;4993979;28;20057;-78
2023/04/08 05:48:34;;;;;;;13.75;8.43;;;1.80;99.90;;;;;;5010125;28;20026;-79
2023/04/08 05:51:00;;;;;;;14.27;8.52;;;1.90;99.90;;;;;;5009549;28;20623;-79
2023/04/08 05:53:25;;;;;;;13.77;8.70;;;1.90;99.90;;;;;;5000028;28;20026;-78
2023/04/08 05:55:51;;;;;;;15.38;8.75;;;2.00;99.90;;;;;;5001621;28;20026;-78
2023/04/08 05:58:16;;;;;;;13.25;8.60;;;2.10;99.90;;;;;;5002938;28;20521;-78
2023/04/08 06:00:42;;;;;;;14.02;8.50;;;2.20;99.90;;;;;;5001011;28;20034;-78
2023/04/08 06:03:08;;;;;;;13.18;8.40;;;2.30;99.90;;;;;;5000011;28;20092;-79
2023/04/08 06:05:33;;;;;;;10.45;7.28;;;2.40;99.90;;;;;;5031495;28;20516;-79
2023/04/08 06:07:59;;;;;;;11.52;8.10;;;2.50;99.90;;;;;;5002991;28;20053;-79
2023/04/08 06:10:25;;;;;;;13.65;7.95;;;2.60;99.90;;;;;;4998239;28;20052;-79
2023/04/08 06:12:50;;;;;;;11.95;7.72;;;2.80;99.90;;;;;;5000895;28;20087;-79
2023/04/08 06:15:16;;;;;;;11.07;7.90;;;2.90;99.90;;;;;;4999585;28;20448;-80
2023/04/08 06:17:42;;;;;;;12.20;8.05;;;3.20;99.90;;;;;;5005169;28;20308;-79
2023/04/08 06:20:10;;;;;;;12.35;7.57;;;3.70;99.90;;;;;;5001484;28;20106;-80
2023/04/08 06:22:36;;;;;;;11.35;7.85;;;4.00;99.90;;;;;;5004750;28;20045;-78
2023/04/08 06:25:02;;;;;;;10.38;6.95;;;4.40;99.90;;;;;;5035624;28;20030;-79
2023/04/08 06:27:28;;;;;;;13.45;7.80;;;4.60;99.90;;;;;;4999866;28;20034;-79
2023/04/08 06:29:54;;;;;;;11.48;7.43;;;4.90;99.90;;;;;;5027807;28;20033;-79
2023/04/08 06:32:20;;;;;;;11.35;7.15;;;5.20;99.90;;;;;;4997549;28;20041;-79
2023/04/08 06:34:46;;;;;;;9.57;6.15;;;5.50;99.90;;;;;;4996686;28;20025;-80
2023/04/08 06:37:12;;;;;;;8.00;6.15;;;5.90;99.90;;;;;;4998564;28;20489;-80
2023/04/08 06:39:37;;;;;;;7.53;5.13;;;6.80;99.90;;;;;;5002326;28;20065;-79
2023/04/08 06:42:03;;;;;;;450.55;210.50;;;7.40;99.90;;;;;;5035724;28;20040;-80
2023/04/08 06:44:29;;;;;;;81.72;38.72;;;8.60;99.50;;;;;;5005868;28;20097;-80
2023/04/08 06:46:54;;;;;;;9.10;5.78;;;9.10;94.70;;;;;;4993470;28;20070;-80
2023/04/08 06:49:20;;;;;;;5.30;4.38;;;9.60;92.10;;;;;;5021315;28;20049;-80
2023/04/08 06:51:46;;;;;;;7.35;4.32;;;10.40;89.50;;;;;;5004435;28;20622;-80
2023/04/08 06:54:11;;;;;;;5.05;3.95;;;10.90;83.90;;;;;;5024378;28;20029;-80
2023/04/08 06:56:37;;;;;;;6.43;4.82;;;11.00;83.60;;;;;;5021848;28;20091;-80
2023/04/08 06:59:05;;;;;;;47.42;22.60;;;11.20;80.80;;;;;;5023953;28;20047;-80
2023/04/08 07:01:31;;;;;;;10.52;6.45;;;11.20;80.90;;;;;;5020892;28;20064;-80
2023/04/08 07:03:57;;;;;;;6.32;4.78;;;12.00;79.90;;;;;;4999584;28;20485;-80
2023/04/08 07:06:23;;;;;;;4.90;4.20;;;13.00;73.10;;;;;;4996059;28;20068;-80
2023/04/08 07:08:49;;;;;;;6.63;4.60;;;14.00;63.30;;;;;;5008141;28;20060;-80
2023/04/08 07:11:15;;;;;;;4.97;4.38;;;14.40;58.70;;;;;;5011692;28;20089;-79
2023/04/08 07:13:40;;;;;;;4.90;3.97;;;14.10;62.00;;;;;;5010922;28;20030;-80
2023/04/08 07:16:06;;;;;;;5.47;4.22;;;13.90;61.90;;;;;;5030416;28;20034;-80
2023/04/08 07:18:32;;;;;;;7.35;4.30;;;13.50;67.70;;;;;;5000166;28;20048;-80
2023/04/08 07:20:59;;;;;;;7.93;4.60;;;13.10;73.50;;;;;;5011447;28;20037;-80
2023/04/08 07:23:25;;;;;;;5.57;4.85;;;12.90;76.60;;;;;;5019340;28;20053;-80
2023/04/08 07:25:51;;;;;;;6.22;4.82;;;12.80;82.90;;;;;;5023278;28;20037;-80
2023/04/08 07:28:16;;;;;;;5.05;4.20;;;12.90;83.40;;;;;;5019640;28;20025;-80
2023/04/08 07:30:42;;;;;;;7.05;4.95;;;13.00;84.10;;;;;;5003280;28;20087;-80
2023/04/08 07:33:08;;;;;;;8.60;5.60;;;13.10;89.50;;;;;;5035606;28;20030;-80
2023/04/08 07:35:33;;;;;;;8.05;4.80;;;13.60;81.20;;;;;;5035414;28;20065;-80
2023/04/08 07:37:59;;;;;;;6.18;4.30;;;13.70;84.10;;;;;;5006059;28;20036;-80
2023/04/08 07:40:25;;;;;;;6.82;5.10;;;13.30;85.00;;;;;;5001908;28;20038;-80
2023/04/08 07:42:51;;;;;;;9.15;6.70;;;12.80;90.30;;;;;;4992210;28;20033;-79
2023/04/08 07:45:16;;;;;;;9.43;6.00;;;13.00;91.40;;;;;;4991745;28;20068;-80
2023/04/08 07:47:43;;;;;;;6.18;4.47;;;14.40;87.90;;;;;;5022052;28;20076;-80
2023/04/08 07:50:09;;;;;;;9.20;4.35;;;16.50;69.30;;;;;;4991635;28;20485;-80
2023/04/08 07:52:34;;;;;;;7.00;4.07;;;19.20;51.70;;;;;;4995174;28;20034;-80
2023/04/08 07:55:00;;;;;;;9.25;4.80;;;21.50;45.30;;;;;;4994922;28;20042;-80
2023/04/08 07:57:26;;;;;;;7.55;3.63;;;24.10;39.40;;;;;;5005075;28;20400;-80
2023/04/08 07:59:52;;;;;;;4.63;3.50;;;25.60;37.40;;;;;;5005989;28;20041;-80
2023/04/08 08:02:17;;;;;;;9.80;5.22;;;26.90;35.30;;;;;;5000596;28;20069;-80
2023/04/08 08:04:43;;;;;;;6.55;3.88;;;28.30;32.00;;;;;;4995350;28;20531;-81
2023/04/08 08:07:09;;;;;;;4.88;3.25;;;29.10;31.00;;;;;;4996751;28;20054;-80
2023/04/08 08:09:34;;;;;;;9.45;3.85;;;29.90;30.10;;;;;;5003023;28;20572;-81
2023/04/08 08:12:00;;;;;;;10.73;4.90;;;30.70;29.50;;;;;;5002306;28;20092;-80
2023/04/08 08:14:26;;;;;;;6.28;3.10;;;31.10;28.80;;;;;;5002345;28;20022;-81
2023/04/08 08:16:53;;;;;;;7.90;3.45;;;31.60;28.10;;;;;;5003735;28;20087;-80
2023/04/08 08:19:22;;;;;;;5.30;2.67;;;31.70;27.40;;;;;;4996033;28;20041;-78
2023/04/08 08:21:47;;;;;;;7.05;3.33;;;32.30;27.40;;;;;;5000381;28;20088;-82
2023/04/08 08:24:13;;;;;;;8.63;3.60;;;32.80;26.80;;;;;;5011092;28;20033;-80
2023/04/08 08:26:39;;;;;;;7.68;3.20;;;33.00;27.40;;;;;;5022216;28;20112;-79
2023/04/08 08:29:07;;;;;;;5.68;3.20;;;33.30;27.30;;;;;;5003049;28;20069;-80
2023/04/08 08:31:35;;;;;;;5.60;3.05;;;34.00;26.20;;;;;;5028524;28;20032;-79
2023/04/08 08:34:01;;;;;;;5.88;2.90;;;34.50;25.50;;;;;;4999741;28;20034;-81
2023/04/08 08:36:27;;;;;;;6.18;2.75;;;34.40;25.40;;;;;;4994456;28;20037;-80
2023/04/08 08:38:53;;;;;;;7.97;3.20;;;34.90;26.20;;;;;;4994886;28;20036;-80
2023/04/08 08:41:20;;;;;;;6.40;2.30;;;35.00;26.20;;;;;;5027505;28;20255;-79
2023/04/08 08:43:46;;;;;;;8.18;3.30;;;35.10;24.80;;;;;;5025720;28;20496;-80
2023/04/08 08:46:16;;;;;;;6.18;2.72;;;35.20;25.80;;;;;;4995523;28;20027;-80
2023/04/08 08:48:41;;;;;;;7.82;3.30;;;35.10;25.10;;;;;;4993992;28;20053;-80
2023/04/08 08:51:08;;;;;;;6.32;2.90;;;35.00;26.00;;;;;;4990362;28;20129;-81
2023/04/08 08:53:34;;;;;;;3.58;1.50;;;34.90;24.90;;;;;;4995881;28;20511;-80
2023/04/08 08:55:59;;;;;;;5.60;2.38;;;35.60;24.20;;;;;;4985135;28;20037;-80
2023/04/08 08:58:29;;;;;;;5.13;2.20;;;35.30;24.80;;;;;;4992924;28;20532;-80
2023/04/08 09:00:54;;;;;;;3.97;2.30;;;35.80;24.90;;;;;;4996184;28;20046;-80
2023/04/08 09:03:21;;;;;;;6.28;1.83;;;35.90;24.20;;;;;;4985286;28;20022;-76
2023/04/08 09:05:51;;;;;;;5.53;2.25;;;35.90;23.50;;;;;;5002534;28;20029;-79
2023/04/08 09:08:30;;;;;;;7.93;2.08;;;36.60;23.80;;;;;;5005772;28;20340;-80
2023/04/08 09:11:20;;;;;;;5.88;2.85;;;36.30;22.20;;;;;;5017664;28;20527;-80
2023/04/08 09:13:46;;;;;;;4.55;2.17;;;36.40;24.10;;;;;;5019995;28;20467;-80
2023/04/08 09:16:15;;;;;;;6.95;2.10;;;36.80;22.90;;;;;;5014514;28;20143;-80
2023/04/08 09:18:43;;;;;;;4.13;2.13;;;36.80;22.40;;;;;;5010748;28;20081;-79
2023/04/08 09:21:09;;;;;;;4.25;2.30;;;36.30;23.40;;;;;;4998588;28;20112;-80
2023/04/08 09:23:43;;;;;;;4.65;1.98;;;35.60;23.00;;;;;;4996996;28;20033;-80
2023/04/08 09:26:10;;;;;;;5.30;2.25;;;35.60;23.10;;;;;;4990542;28;20036;-78
2023/04/08 09:28:36;;;;;;;5.78;2.72;;;34.40;22.90;;;;;;4991818;28;20111;-80
2023/04/08 09:31:21;;;;;;;7.25;2.80;;;33.10;23.80;;;;;;4990986;28;20041;-79
2023/04/08 09:33:49;;;;;;;6.53;2.80;;;32.00;25.50;;;;;;5003749;28;20034;-80
2023/04/08 09:36:15;;;;;;;5.82;2.13;;;33.70;25.90;;;;;;5021463;28;20060;-79
2023/04/08 09:38:42;;;;;;;5.78;2.47;;;35.00;24.50;;;;;;5009631;28;20023;-80
2023/04/08 09:41:11;;;;;;;4.13;2.40;;;36.10;23.00;;;;;;4988989;28;20046;-79
2023/04/08 09:43:47;;;;;;;6.00;2.17;;;37.20;24.20;;;;;;5028050;28;22318;-79
2023/04/08 09:46:13;;;;;;;6.53;2.55;;;38.00;22.20;;;;;;5002000;28;20076;-78
2023/04/08 09:48:47;;;;;;;6.25;2.30;;;35.80;22.70;;;;;;5033893;28;20446;-79
2023/04/08 09:51:15;;;;;;;4.57;2.10;;;35.20;23.90;;;;;;5029876;28;20030;-79
2023/04/08 09:53:46;;;;;;;4.13;1.90;;;33.70;23.40;;;;;;5000085;28;20912;-79
2023/04/08 09:56:13;;;;;;;6.07;2.42;;;32.50;23.90;;;;;;4995574;28;20030;-78
2023/04/08 09:58:47;;;;;;;4.88;2.28;;;30.80;25.30;;;;;;5001758;28;20370;-79
2023/04/08 10:01:15;;;;;;;8.63;3.20;;;28.10;26.90;;;;;;5028551;28;20175;-79
2023/04/08 10:03:53;;;;;;;5.25;2.65;;;25.90;30.30;;;;;;5009857;28;20045;-78
2023/04/08 10:06:20;;;;;;;7.88;2.92;;;23.70;34.20;;;;;;4998156;28;20044;-79
2023/04/08 10:08:46;;;;;;;7.57;3.35;;;22.10;35.70;;;;;;4990593;28;20131;-78
2023/04/08 10:11:15;;;;;;;5.43;3.15;;;20.80;38.60;;;;;;5021278;28;20584;-79
2023/04/08 10:13:40;;;;;;;3.72;2.88;;;19.70;40.20;;;;;;4984634;28;20548;-79
2023/04/08 10:16:28;;;;;;;6.22;3.17;;;19.00;43.30;;;;;;4989822;28;20037;-79
2023/04/08 10:18:55;;;;;;;5.78;3.38;;;18.70;43.90;;;;;;5008315;28;20475;-78
2023/04/08 10:21:47;;;;;;;7.00;3.13;;;18.90;45.60;;;;;;4988966;28;20046;-78
2023/04/08 10:24:13;;;;;;;5.75;2.72;;;21.70;41.10;;;;;;4984383;28;20516;-79
2023/04/08 10:26:41;;;;;;;6.18;2.97;;;25.30;35.00;;;;;;4987742;28;20121;-78
2023/04/08 10:29:20;;;;;;;4.07;2.50;;;28.00;31.10;;;;;;4989218;28;20037;-79
2023/04/08 10:31:46;;;;;;;6.03;2.50;;;28.90;30.10;;;;;;4991087;28;20424;-77
2023/04/08 10:34:20;;;;;;;7.90;3.05;;;29.10;29.50;;;;;;4988611;28;20113;-79
2023/04/08 10:36:46;;;;;;;4.57;2.25;;;29.10;28.00;;;;;;4987555;28;20036;-79
2023/04/08 10:39:13;;;;;;;6.45;2.63;;;28.30;29.20;;;;;;4991376;28;20041;-79
2023/04/08 10:41:43;;;;;;;7.53;2.83;;;26.60;29.80;;;;;;4985485;28;20103;-79
2023/04/08 10:44:15;;;;;;;8.10;3.13;;;25.40;32.20;;;;;;5001372;28;20029;-79
2023/04/08 10:46:42;;;;;;;4.57;2.70;;;23.70;34.80;;;;;;4995701;28;20036;-79
2023/04/08 10:49:07;;;;;;;6.40;2.95;;;22.80;34.40;;;;;;4990301;28;20052;-78
2023/04/08 10:51:36;;;;;;;5.30;3.13;;;22.50;36.70;;;;;;4999792;28;20057;-79
2023/04/08 10:54:09;;;;;;;6.07;3.30;;;23.00;39.90;;;;;;4998182;28;20363;-78
2023/04/08 10:56:36;;;;;;;6.20;2.13;;;23.50;35.60;;;;;;4993329;28;20511;-78
2023/04/08 10:59:02;;;;;;;6.10;3.20;;;24.30;33.50;;;;;;4989021;28;20030;-78
2023/04/08 11:01:40;;;;;;;6.25;2.88;;;24.10;35.50;;;;;;4995351;28;20041;-79
2023/04/08 11:04:10;;;;;;;8.35;2.90;;;24.40;33.70;;;;;;5001294;28;20026;-79
2023/04/08 11:06:36;;;;;;;3.50;3.20;;;23.70;34.20;;;;;;4999680;28;20054;-79
2023/04/08 11:09:03;;;;;;;6.45;3.20;;;22.40;35.70;;;;;;5018596;28;20133;-78
2023/04/08 11:11:30;;;;;;;5.28;2.50;;;21.70;39.30;;;;;;5003752;28;20451;-78
2023/04/08 11:13:56;;;;;;;9.52;2.72;;;20.90;41.10;;;;;;5032560;28;20532;-78
2023/04/08 11:16:22;;;;;;;8.10;2.60;;;20.30;40.10;;;;;;5003718;28;20058;-79
2023/04/08 11:18:49;;;;;;;6.28;2.88;;;19.70;41.20;;;;;;5006603;28;20112;-79
2023/04/08 11:21:16;;;;;;;6.15;2.95;;;19.70;44.50;;;;;;5000905;28;20057;-79
2023/04/08 11:23:42;;;;;;;5.03;2.60;;;20.40;39.70;;;;;;5000334;28;20026;-79
2023/04/08 11:26:07;;;;;;;6.25;3.17;;;20.90;42.80;;;;;;4998102;28;20430;-79
2023/04/08 11:28:34;;;;;;;5.90;3.47;;;20.40;39.70;;;;;;4989654;28;20033;-78
2023/04/08 11:31:02;;;;;;;6.32;3.13;;;19.50;41.20;;;;;;4992279;28;20064;-78
2023/04/08 11:33:30;;;;;;;8.10;3.55;;;18.80;43.40;;;;;;4988416;28;20123;-79
2023/04/08 11:35:56;;;;;;;5.93;2.85;;;18.50;46.80;;;;;;5006999;28;20030;-78
2023/04/08 11:38:23;;;;;;;8.93;2.78;;;18.20;46.10;;;;;;4989452;28;20508;-77
2023/04/08 11:40:54;;;;;;;8.25;3.22;;;18.00;50.40;;;;;;4990786;28;20042;-77
2023/04/08 11:43:20;;;;;;;8.65;3.20;;;17.90;50.50;;;;;;4997507;28;21913;-76
2023/04/08 11:45:45;;;;;;;5.80;3.60;;;17.70;52.30;;;;;;4987888;28;20033;-77
2023/04/08 11:48:13;;;;;;;4.40;2.47;;;17.40;51.10;;;;;;4990754;28;20034;-77
2023/04/08 11:50:38;;;;;;;5.90;2.30;;;17.10;51.50;;;;;;4990811;28;20110;-78
2023/04/08 11:53:14;;;;;;;4.45;2.40;;;16.90;54.70;;;;;;4996341;28;20049;-77
2023/04/08 11:55:40;;;;;;;7.40;2.70;;;16.80;50.70;;;;;;4990884;28;20417;-77
2023/04/08 11:58:06;;;;;;;6.72;3.65;;;16.70;55.90;;;;;;4990792;28;20026;-77
2023/04/08 12:00:32;;;;;;;6.68;3.05;;;16.80;60.00;;;;;;4986398;28;20041;-77
2023/04/08 12:02:59;;;;;;;5.50;3.13;;;17.00;63.00;;;;;;4990284;28;20084;-77
2023/04/08 12:05:24;;;;;;;7.03;3.60;;;17.00;55.30;;;;;;4993886;28;20022;-77
2023/04/08 12:07:50;;;;;;;7.18;3.33;;;17.10;56.60;;;;;;4995720;28;20393;-77
2023/04/08 12:10:16;;;;;;;5.03;3.08;;;17.30;60.00;;;;;;4997383;28;20065;-77
2023/04/08 12:12:41;;;;;;;6.65;3.47;;;17.10;53.90;;;;;;4992493;28;20022;-77
2023/04/08 12:15:08;;;;;;;6.28;3.45;;;16.80;58.70;;;;;;4994000;28;20138;-78
2023/04/08 12:17:34;;;;;;;6.03;2.97;;;16.60;54.10;;;;;;4992601;28;20125;-78
2023/04/08 12:20:00;;;;;;;4.80;2.65;;;16.60;58.70;;;;;;4994453;28;20088;-77
2023/04/08 12:22:26;;;;;;;6.55;3.00;;;16.40;57.80;;;;;;4993925;28;20041;-77
2023/04/08 12:24:51;;;;;;;4.57;2.50;;;16.00;64.70;;;;;;4999849;28;20377;-77
2023/04/08 12:27:17;;;;;;;5.93;2.70;;;15.80;64.30;;;;;;4995571;28;20044;-77
2023/04/08 12:29:43;;;;;;;4.03;2.67;;;15.30;69.50;;;;;;4995971;28;20066;-77
2023/04/08 12:32:08;;;;;;;7.53;2.65;;;15.30;77.60;;;;;;4991130;28;20033;-77
2023/04/08 12:34:34;;;;;;;4.22;2.70;;;15.00;75.90;;;;;;5011378;28;20556;-77
2023/04/08 12:37:01;;;;;;;3.40;2.40;;;15.00;76.00;;;;;;4993897;28;20042;-77
2023/04/08 12:39:27;;;;;;;7.85;2.97;;;15.30;80.00;;;;;;5006176;28;20026;-77
2023/04/08 12:41:53;;;;;;;5.90;2.95;;;15.40;68.60;;;;;;4991150;28;20093;-77
2023/04/08 12:44:18;;;;;;;5.43;2.70;;;15.80;66.40;;;;;;4991984;28;20030;-77